sensor_id;sensor_type;location;lat;lon;timestamp;pressure;altitude;pressure_sealevel;temperature;humidity
2339;BME280;1180;51.438;6.978;2022-08-19T00:00:45;100013.88;;;23.71;78.74
2339;BME280;1180;51.438;6.978;2022-08-19T00:03:10;100008.63;;;23.71;78.40
2339;BME280;1180;51.438;6.978;2022-08-19T00:05:36;100006.38;;;23.68;78.73
2339;BME280;1180;51.438;6.978;2022-08-19T00:08:02;100012.63;;;23.67;78.84
2339;BME280;1180;51.438;6.978;2022-08-19T00:10:27;100005.41;;;23.54;79.35
2339;BME280;1180;51.438;6.978;2022-08-19T00:12:53;100011.81;;;23.51;79.57
2339;BME280;1180;51.438;6.978;2022-08-19T00:15:20;100010.81;;;23.52;79.11
2339;BME280;1180;51.438;6.978;2022-08-19T00:17:46;100016.03;;;23.52;79.14
2339;BME280;1180;51.438;6.978;2022-08-19T00:20:15;100011.63;;;23.53;79.09
2339;BME280;1180;51.438;6.978;2022-08-19T00:22:43;100010.63;;;23.54;78.87
2339;BME280;1180;51.438;6.978;2022-08-19T00:25:10;100011.09;;;23.58;78.79
2339;BME280;1180;51.438;6.978;2022-08-19T00:27:35;100012.63;;;23.52;78.99
2339;BME280;1180;51.438;6.978;2022-08-19T00:30:03;100007.56;;;23.50;79.26
2339;BME280;1180;51.438;6.978;2022-08-19T00:32:29;100011.47;;;23.55;79.26
2339;BME280;1180;51.438;6.978;2022-08-19T00:34:54;100004.69;;;23.45;79.62
2339;BME280;1180;51.438;6.978;2022-08-19T00:37:22;100001.69;;;23.48;79.53
2339;BME280;1180;51.438;6.978;2022-08-19T00:39:48;100001.53;;;23.50;79.38
2339;BME280;1180;51.438;6.978;2022-08-19T00:42:14;99999.53;;;23.37;80.34
2339;BME280;1180;51.438;6.978;2022-08-19T00:44:40;100000.44;;;23.44;80.15
2339;BME280;1180;51.438;6.978;2022-08-19T00:47:06;99998.38;;;23.40;79.87
2339;BME280;1180;51.438;6.978;2022-08-19T00:52:07;100002.16;;;23.37;80.12
2339;BME280;1180;51.438;6.978;2022-08-19T00:54:35;99995.66;;;23.33;80.35
2339;BME280;1180;51.438;6.978;2022-08-19T00:57:05;100000.91;;;23.33;80.62
2339;BME280;1180;51.438;6.978;2022-08-19T00:59:33;99994.31;;;23.37;79.99
2339;BME280;1180;51.438;6.978;2022-08-19T01:02:00;99996.66;;;23.32;80.30
2339;BME280;1180;51.438;6.978;2022-08-19T01:04:26;99994.47;;;23.20;80.86
2339;BME280;1180;51.438;6.978;2022-08-19T01:06:51;99999.88;;;23.19;80.76
2339;BME280;1180;51.438;6.978;2022-08-19T01:09:17;99996.44;;;23.18;80.96
2339;BME280;1180;51.438;6.978;2022-08-19T01:11:43;99986.91;;;23.26;80.13
2339;BME280;1180;51.438;6.978;2022-08-19T01:14:10;99993.50;;;23.21;80.92
2339;BME280;1180;51.438;6.978;2022-08-19T01:16:38;99992.19;;;23.17;80.73
2339;BME280;1180;51.438;6.978;2022-08-19T01:19:26;99997.00;;;23.14;81.19
2339;BME280;1180;51.438;6.978;2022-08-19T01:22:00;100002.59;;;23.11;80.97
2339;BME280;1180;51.438;6.978;2022-08-19T01:24:27;100002.75;;;23.09;81.38
2339;BME280;1180;51.438;6.978;2022-08-19T01:26:52;100003.13;;;23.06;81.65
2339;BME280;1180;51.438;6.978;2022-08-19T01:29:18;99997.53;;;23.09;81.10
2339;BME280;1180;51.438;6.978;2022-08-19T01:31:43;100001.75;;;23.10;81.28
2339;BME280;1180;51.438;6.978;2022-08-19T01:34:09;100003.47;;;23.03;81.96
2339;BME280;1180;51.438;6.978;2022-08-19T01:36:44;99996.16;;;22.98;82.14
2339;BME280;1180;51.438;6.978;2022-08-19T01:39:19;99994.00;;;23.02;81.92
2339;BME280;1180;51.438;6.978;2022-08-19T01:41:45;99995.63;;;23.03;82.14
2339;BME280;1180;51.438;6.978;2022-08-19T01:44:11;99998.59;;;23.00;82.67
2339;BME280;1180;51.438;6.978;2022-08-19T01:46:37;99991.28;;;22.95;82.51
2339;BME280;1180;51.438;6.978;2022-08-19T01:49:04;99991.91;;;22.97;82.53
2339;BME280;1180;51.438;6.978;2022-08-19T01:51:30;99985.53;;;23.00;82.68
2339;BME280;1180;51.438;6.978;2022-08-19T01:53:57;99992.91;;;22.96;83.02
2339;BME280;1180;51.438;6.978;2022-08-19T01:56:23;99995.16;;;22.99;82.72
2339;BME280;1180;51.438;6.978;2022-08-19T01:58:52;99993.00;;;23.03;82.16
2339;BME280;1180;51.438;6.978;2022-08-19T02:01:19;99991.28;;;22.95;82.33
2339;BME280;1180;51.438;6.978;2022-08-19T02:03:45;99993.81;;;22.88;82.65
2339;BME280;1180;51.438;6.978;2022-08-19T02:06:11;99996.25;;;22.90;83.03
2339;BME280;1180;51.438;6.978;2022-08-19T02:08:38;99990.50;;;22.94;82.66
2339;BME280;1180;51.438;6.978;2022-08-19T02:11:05;99988.28;;;22.83;82.78
2339;BME280;1180;51.438;6.978;2022-08-19T02:13:31;99987.84;;;22.79;82.96
2339;BME280;1180;51.438;6.978;2022-08-19T02:15:57;99988.13;;;22.85;83.11
2339;BME280;1180;51.438;6.978;2022-08-19T02:18:22;99983.25;;;22.82;82.95
2339;BME280;1180;51.438;6.978;2022-08-19T02:20:48;99980.59;;;22.67;83.63
2339;BME280;1180;51.438;6.978;2022-08-19T02:23:14;99979.50;;;22.61;83.14
2339;BME280;1180;51.438;6.978;2022-08-19T02:25:41;99982.59;;;22.64;83.13
2339;BME280;1180;51.438;6.978;2022-08-19T02:28:07;99991.50;;;22.70;83.32
2339;BME280;1180;51.438;6.978;2022-08-19T02:30:33;99992.34;;;22.71;83.20
2339;BME280;1180;51.438;6.978;2022-08-19T02:32:58;100008.09;;;22.62;83.79
2339;BME280;1180;51.438;6.978;2022-08-19T02:35:24;100000.78;;;22.58;84.13
2339;BME280;1180;51.438;6.978;2022-08-19T02:37:50;99999.28;;;22.63;84.05
2339;BME280;1180;51.438;6.978;2022-08-19T02:40:34;99991.88;;;22.67;83.84
2339;BME280;1180;51.438;6.978;2022-08-19T02:43:08;99994.31;;;22.45;84.48
2339;BME280;1180;51.438;6.978;2022-08-19T02:45:36;100000.78;;;22.34;84.50
2339;BME280;1180;51.438;6.978;2022-08-19T02:48:02;99999.78;;;22.35;84.63
2339;BME280;1180;51.438;6.978;2022-08-19T02:50:28;99994.91;;;22.32;84.91
2339;BME280;1180;51.438;6.978;2022-08-19T02:52:53;99999.78;;;22.35;84.73
2339;BME280;1180;51.438;6.978;2022-08-19T02:55:19;100000.41;;;22.38;84.53
2339;BME280;1180;51.438;6.978;2022-08-19T02:57:46;99997.59;;;22.24;84.31
2339;BME280;1180;51.438;6.978;2022-08-19T03:00:12;100006.06;;;22.26;84.27
2339;BME280;1180;51.438;6.978;2022-08-19T03:02:38;100004.44;;;22.25;84.48
2339;BME280;1180;51.438;6.978;2022-08-19T03:05:04;100007.44;;;22.14;84.88
2339;BME280;1180;51.438;6.978;2022-08-19T03:07:30;100008.06;;;22.16;84.72
2339;BME280;1180;51.438;6.978;2022-08-19T03:09:56;100005.50;;;22.07;85.18
2339;BME280;1180;51.438;6.978;2022-08-19T03:12:21;100002.41;;;22.04;85.32
2339;BME280;1180;51.438;6.978;2022-08-19T03:14:47;100003.25;;;22.04;85.34
2339;BME280;1180;51.438;6.978;2022-08-19T03:17:12;100003.81;;;22.15;85.16
2339;BME280;1180;51.438;6.978;2022-08-19T03:19:38;99997.63;;;22.16;85.03
2339;BME280;1180;51.438;6.978;2022-08-19T03:22:03;100004.13;;;22.20;85.00
2339;BME280;1180;51.438;6.978;2022-08-19T03:24:30;99997.31;;;22.11;85.31
2339;BME280;1180;51.438;6.978;2022-08-19T03:26:56;99998.50;;;22.08;85.99
2339;BME280;1180;51.438;6.978;2022-08-19T03:29:22;100004.06;;;22.05;86.01
2339;BME280;1180;51.438;6.978;2022-08-19T03:31:48;100004.88;;;22.05;85.98
2339;BME280;1180;51.438;6.978;2022-08-19T03:34:19;99999.72;;;22.20;85.45
2339;BME280;1180;51.438;6.978;2022-08-19T03:36:45;100004.78;;;22.22;85.00
2339;BME280;1180;51.438;6.978;2022-08-19T03:39:11;100000.72;;;22.19;85.22
2339;BME280;1180;51.438;6.978;2022-08-19T03:41:39;100006.44;;;22.15;85.40
2339;BME280;1180;51.438;6.978;2022-08-19T03:44:05;100000.41;;;22.14;85.96
2339;BME280;1180;51.438;6.978;2022-08-19T03:46:32;99997.84;;;22.06;85.82
2339;BME280;1180;51.438;6.978;2022-08-19T03:49:00;100001.31;;;21.98;86.85
2339;BME280;1180;51.438;6.978;2022-08-19T03:51:34;99992.84;;;21.96;86.94
2339;BME280;1180;51.438;6.978;2022-08-19T03:54:04;100000.75;;;21.88;87.11
2339;BME280;1180;51.438;6.978;2022-08-19T03:56:30;99996.31;;;21.88;86.89
2339;BME280;1180;51.438;6.978;2022-08-19T03:58:57;99996.94;;;21.90;87.12
2339;BME280;1180;51.438;6.978;2022-08-19T04:01:25;99997.94;;;21.89;87.00
2339;BME280;1180;51.438;6.978;2022-08-19T04:03:54;100004.78;;;21.90;87.30
2339;BME280;1180;51.438;6.978;2022-08-19T04:06:22;100009.84;;;21.92;86.75
2339;BME280;1180;51.438;6.978;2022-08-19T04:08:50;100011.81;;;21.90;86.89
2339;BME280;1180;51.438;6.978;2022-08-19T04:11:19;100013.13;;;21.86;87.40
2339;BME280;1180;51.438;6.978;2022-08-19T04:13:47;100006.28;;;21.85;87.80
2339;BME280;1180;51.438;6.978;2022-08-19T04:16:12;99996.59;;;21.93;87.12
2339;BME280;1180;51.438;6.978;2022-08-19T04:18:39;100001.31;;;21.98;86.87
2339;BME280;1180;51.438;6.978;2022-08-19T04:21:06;100000.97;;;22.01;86.56
2339;BME280;1180;51.438;6.978;2022-08-19T04:23:32;100001.13;;;22.00;86.75
2339;BME280;1180;51.438;6.978;2022-08-19T04:25:59;99999.50;;;21.99;86.85
2339;BME280;1180;51.438;6.978;2022-08-19T04:28:25;100000.69;;;21.96;87.08
2339;BME280;1180;51.438;6.978;2022-08-19T04:30:52;99999.00;;;22.03;87.16
2339;BME280;1180;51.438;6.978;2022-08-19T04:33:21;100006.34;;;22.08;86.36
2339;BME280;1180;51.438;6.978;2022-08-19T04:35:49;100005.03;;;22.04;87.08
2339;BME280;1180;51.438;6.978;2022-08-19T04:38:17;100009.41;;;22.12;86.85
2339;BME280;1180;51.438;6.978;2022-08-19T04:40:44;100016.16;;;22.06;86.93
2339;BME280;1180;51.438;6.978;2022-08-19T04:43:29;100019.91;;;22.03;87.16
2339;BME280;1180;51.438;6.978;2022-08-19T04:45:55;100018.75;;;22.06;87.45
2339;BME280;1180;51.438;6.978;2022-08-19T04:48:21;100026.91;;;22.03;87.70
2339;BME280;1180;51.438;6.978;2022-08-19T04:50:56;100024.00;;;22.06;87.93
2339;BME280;1180;51.438;6.978;2022-08-19T04:53:27;100012.00;;;22.12;87.29
2339;BME280;1180;51.438;6.978;2022-08-19T04:55:56;100019.69;;;22.13;87.80
2339;BME280;1180;51.438;6.978;2022-08-19T04:58:26;100024.72;;;22.15;87.86
2339;BME280;1180;51.438;6.978;2022-08-19T05:00:52;100026.84;;;22.19;87.46
2339;BME280;1180;51.438;6.978;2022-08-19T05:03:19;100036.78;;;22.24;87.38
2339;BME280;1180;51.438;6.978;2022-08-19T05:05:46;100033.34;;;22.24;87.29
2339;BME280;1180;51.438;6.978;2022-08-19T05:08:15;100039.22;;;22.26;87.16
2339;BME280;1180;51.438;6.978;2022-08-19T05:10:51;100046.19;;;22.33;87.07
2339;BME280;1180;51.438;6.978;2022-08-19T05:13:19;100049.56;;;22.42;86.71
2339;BME280;1180;51.438;6.978;2022-08-19T05:15:56;100045.16;;;22.43;86.65
2339;BME280;1180;51.438;6.978;2022-08-19T05:18:22;100050.06;;;22.46;86.27
2339;BME280;1180;51.438;6.978;2022-08-19T05:21:09;100049.19;;;22.54;85.92
2339;BME280;1180;51.438;6.978;2022-08-19T05:23:53;100060.75;;;22.59;85.29
2339;BME280;1180;51.438;6.978;2022-08-19T05:26:18;100061.84;;;22.65;85.42
2339;BME280;1180;51.438;6.978;2022-08-19T05:28:43;100053.66;;;22.68;85.17
2339;BME280;1180;51.438;6.978;2022-08-19T05:31:09;100056.03;;;22.78;84.80
2339;BME280;1180;51.438;6.978;2022-08-19T05:33:34;100056.66;;;22.80;84.81
2339;BME280;1180;51.438;6.978;2022-08-19T05:36:01;100056.94;;;22.85;84.40
2339;BME280;1180;51.438;6.978;2022-08-19T05:38:27;100065.09;;;22.90;84.34
2339;BME280;1180;51.438;6.978;2022-08-19T05:40:53;100062.41;;;22.99;84.01
2339;BME280;1180;51.438;6.978;2022-08-19T05:43:19;100061.69;;;23.05;83.80
2339;BME280;1180;51.438;6.978;2022-08-19T05:45:44;100058.72;;;23.08;83.70
2339;BME280;1180;51.438;6.978;2022-08-19T05:48:11;100064.94;;;23.07;83.54
2339;BME280;1180;51.438;6.978;2022-08-19T05:50:39;100062.50;;;23.05;83.46
2339;BME280;1180;51.438;6.978;2022-08-19T05:53:05;100061.53;;;23.06;83.44
2339;BME280;1180;51.438;6.978;2022-08-19T05:55:32;100069.19;;;23.08;83.70
2339;BME280;1180;51.438;6.978;2022-08-19T05:57:57;100073.66;;;23.22;83.49
2339;BME280;1180;51.438;6.978;2022-08-19T06:00:23;100069.22;;;23.23;83.11
2339;BME280;1180;51.438;6.978;2022-08-19T06:02:48;100060.25;;;23.17;83.45
2339;BME280;1180;51.438;6.978;2022-08-19T06:05:14;100054.16;;;23.25;82.89
2339;BME280;1180;51.438;6.978;2022-08-19T06:07:40;100055.06;;;23.32;82.42
2339;BME280;1180;51.438;6.978;2022-08-19T06:10:07;100052.06;;;23.35;82.99
2339;BME280;1180;51.438;6.978;2022-08-19T06:12:34;100058.41;;;23.41;82.56
2339;BME280;1180;51.438;6.978;2022-08-19T06:15:05;100068.53;;;23.44;82.90
2339;BME280;1180;51.438;6.978;2022-08-19T06:17:32;100057.69;;;23.47;82.63
2339;BME280;1180;51.438;6.978;2022-08-19T06:19:59;100063.03;;;23.54;83.08
2339;BME280;1180;51.438;6.978;2022-08-19T06:22:25;100062.91;;;23.47;83.17
2339;BME280;1180;51.438;6.978;2022-08-19T06:24:51;100057.53;;;23.49;82.79
2339;BME280;1180;51.438;6.978;2022-08-19T06:27:19;100065.09;;;23.59;82.42
2339;BME280;1180;51.438;6.978;2022-08-19T06:29:45;100069.16;;;23.61;82.29
2339;BME280;1180;51.438;6.978;2022-08-19T06:32:12;100069.25;;;23.68;82.32
2339;BME280;1180;51.438;6.978;2022-08-19T06:34:39;100068.63;;;23.66;82.29
2339;BME280;1180;51.438;6.978;2022-08-19T06:37:06;100066.00;;;23.66;82.40
2339;BME280;1180;51.438;6.978;2022-08-19T06:39:36;100060.66;;;23.59;82.85
2339;BME280;1180;51.438;6.978;2022-08-19T06:42:05;100060.56;;;23.52;83.25
2339;BME280;1180;51.438;6.978;2022-08-19T06:44:39;100060.50;;;23.46;83.49
2339;BME280;1180;51.438;6.978;2022-08-19T06:47:07;100058.69;;;23.46;83.57
2339;BME280;1180;51.438;6.978;2022-08-19T06:49:33;100063.75;;;23.48;83.32
2339;BME280;1180;51.438;6.978;2022-08-19T06:52:00;100068.88;;;23.41;83.69
2339;BME280;1180;51.438;6.978;2022-08-19T06:54:27;100069.16;;;23.31;84.77
2339;BME280;1180;51.438;6.978;2022-08-19T06:56:54;100060.34;;;23.24;85.21
2339;BME280;1180;51.438;6.978;2022-08-19T06:59:22;100062.88;;;23.17;85.66
2339;BME280;1180;51.438;6.978;2022-08-19T07:01:53;100065.84;;;23.14;85.64
2339;BME280;1180;51.438;6.978;2022-08-19T07:04:25;100068.38;;;23.07;86.01
2339;BME280;1180;51.438;6.978;2022-08-19T07:07:05;100067.09;;;23.03;86.46
2339;BME280;1180;51.438;6.978;2022-08-19T07:09:33;100066.28;;;23.03;86.90
2339;BME280;1180;51.438;6.978;2022-08-19T07:11:59;100069.91;;;23.02;87.43
2339;BME280;1180;51.438;6.978;2022-08-19T07:14:27;100067.56;;;23.07;86.98
2339;BME280;1180;51.438;6.978;2022-08-19T07:16:54;100068.75;;;23.04;87.41
2339;BME280;1180;51.438;6.978;2022-08-19T07:19:21;100060.91;;;23.04;87.47
2339;BME280;1180;51.438;6.978;2022-08-19T07:21:49;100074.31;;;23.01;87.65
2339;BME280;1180;51.438;6.978;2022-08-19T07:24:18;100082.25;;;23.08;87.56
2339;BME280;1180;51.438;6.978;2022-08-19T07:26:44;100081.75;;;23.13;87.67
2339;BME280;1180;51.438;6.978;2022-08-19T07:29:10;100083.09;;;23.08;87.98
2339;BME280;1180;51.438;6.978;2022-08-19T07:31:36;100094.09;;;23.04;88.24
2339;BME280;1180;51.438;6.978;2022-08-19T07:34:08;100089.31;;;23.07;88.41
2339;BME280;1180;51.438;6.978;2022-08-19T07:36:37;100103.03;;;23.10;87.74
2339;BME280;1180;51.438;6.978;2022-08-19T07:39:07;100100.06;;;23.13;87.90
2339;BME280;1180;51.438;6.978;2022-08-19T07:41:34;100113.94;;;23.13;87.77
2339;BME280;1180;51.438;6.978;2022-08-19T07:44:00;100107.56;;;23.16;87.55
2339;BME280;1180;51.438;6.978;2022-08-19T07:46:31;100113.25;;;23.19;87.67
2339;BME280;1180;51.438;6.978;2022-08-19T07:48:58;100124.31;;;23.30;87.52
2339;BME280;1180;51.438;6.978;2022-08-19T07:51:24;100121.34;;;23.33;87.23
2339;BME280;1180;51.438;6.978;2022-08-19T07:53:49;100125.59;;;23.34;87.43
2339;BME280;1180;51.438;6.978;2022-08-19T07:56:16;100131.75;;;23.18;88.16
2339;BME280;1180;51.438;6.978;2022-08-19T07:58:43;100130.81;;;23.34;87.91
2339;BME280;1180;51.438;6.978;2022-08-19T08:01:14;100131.00;;;23.47;87.59
2339;BME280;1180;51.438;6.978;2022-08-19T08:03:40;100141.59;;;23.54;87.29
2339;BME280;1180;51.438;6.978;2022-08-19T08:06:24;100138.88;;;23.62;87.25
2339;BME280;1180;51.438;6.978;2022-08-19T08:09:09;100142.25;;;23.71;87.17
2339;BME280;1180;51.438;6.978;2022-08-19T08:11:50;100140.44;;;23.87;86.78
2339;BME280;1180;51.438;6.978;2022-08-19T08:14:32;100142.41;;;23.85;86.63
2339;BME280;1180;51.438;6.978;2022-08-19T08:16:58;100138.88;;;23.92;85.54
2339;BME280;1180;51.438;6.978;2022-08-19T08:19:26;100140.59;;;24.00;85.08
2339;BME280;1180;51.438;6.978;2022-08-19T08:21:54;100135.91;;;24.11;85.09
2339;BME280;1180;51.438;6.978;2022-08-19T08:24:20;100130.09;;;24.30;84.56
2339;BME280;1180;51.438;6.978;2022-08-19T08:26:45;100132.75;;;24.52;83.96
2339;BME280;1180;51.438;6.978;2022-08-19T08:29:12;100136.13;;;24.67;83.41
2339;BME280;1180;51.438;6.978;2022-08-19T08:31:39;100137.34;;;24.87;81.82
2339;BME280;1180;51.438;6.978;2022-08-19T08:34:05;100139.59;;;24.90;80.00
2339;BME280;1180;51.438;6.978;2022-08-19T08:36:31;100141.91;;;24.78;79.18
2339;BME280;1180;51.438;6.978;2022-08-19T08:38:59;100144.91;;;24.75;78.97
2339;BME280;1180;51.438;6.978;2022-08-19T08:47:09;100148.72;;;24.94;75.94
2339;BME280;1180;51.438;6.978;2022-08-19T08:52:07;100150.13;;;25.18;73.78
2339;BME280;1180;51.438;6.978;2022-08-19T08:54:42;100137.53;;;25.07;73.64
2339;BME280;1180;51.438;6.978;2022-08-19T08:57:13;100139.84;;;24.95;75.22
2339;BME280;1180;51.438;6.978;2022-08-19T08:59:41;100144.16;;;25.03;74.49
2339;BME280;1180;51.438;6.978;2022-08-19T09:02:08;100142.69;;;25.22;73.64
2339;BME280;1180;51.438;6.978;2022-08-19T09:04:35;100142.22;;;25.12;72.42
2339;BME280;1180;51.438;6.978;2022-08-19T09:07:20;100142.28;;;24.97;73.79
2339;BME280;1180;51.438;6.978;2022-08-19T09:09:52;100140.00;;;25.15;72.70
2339;BME280;1180;51.438;6.978;2022-08-19T09:12:53;100144.50;;;25.21;72.00
2339;BME280;1180;51.438;6.978;2022-08-19T09:15:41;100136.81;;;25.48;70.94
2339;BME280;1180;51.438;6.978;2022-08-19T09:18:08;100140.97;;;25.36;70.18
2339;BME280;1180;51.438;6.978;2022-08-19T09:20:33;100150.63;;;25.29;70.05
2339;BME280;1180;51.438;6.978;2022-08-19T09:22:59;100148.06;;;25.42;70.09
2339;BME280;1180;51.438;6.978;2022-08-19T09:25:25;100146.00;;;25.31;70.43
2339;BME280;1180;51.438;6.978;2022-08-19T09:27:52;100136.16;;;25.40;70.86
2339;BME280;1180;51.438;6.978;2022-08-19T09:30:27;100129.84;;;25.62;70.40
2339;BME280;1180;51.438;6.978;2022-08-19T09:32:54;100136.31;;;25.60;67.13
2339;BME280;1180;51.438;6.978;2022-08-19T09:35:22;100130.47;;;25.64;66.27
2339;BME280;1180;51.438;6.978;2022-08-19T09:37:48;100136.38;;;25.73;66.67
2339;BME280;1180;51.438;6.978;2022-08-19T09:40:15;100132.28;;;25.64;65.27
2339;BME280;1180;51.438;6.978;2022-08-19T09:42:43;100134.75;;;25.72;65.28
2339;BME280;1180;51.438;6.978;2022-08-19T09:45:09;100139.63;;;25.75;66.04
2339;BME280;1180;51.438;6.978;2022-08-19T09:47:35;100135.81;;;25.85;66.55
2339;BME280;1180;51.438;6.978;2022-08-19T09:50:04;100134.84;;;25.92;66.86
2339;BME280;1180;51.438;6.978;2022-08-19T09:52:30;100132.25;;;25.99;67.01
2339;BME280;1180;51.438;6.978;2022-08-19T09:54:56;100128.66;;;26.14;66.60
2339;BME280;1180;51.438;6.978;2022-08-19T09:57:21;100126.50;;;25.82;66.77
2339;BME280;1180;51.438;6.978;2022-08-19T09:59:47;100132.09;;;26.14;66.13
2339;BME280;1180;51.438;6.978;2022-08-19T10:02:13;100132.06;;;25.65;67.74
2339;BME280;1180;51.438;6.978;2022-08-19T10:04:38;100121.97;;;25.62;68.08
2339;BME280;1180;51.438;6.978;2022-08-19T10:07:22;100112.78;;;25.87;67.92
2339;BME280;1180;51.438;6.978;2022-08-19T10:09:47;100124.19;;;26.07;66.64
2339;BME280;1180;51.438;6.978;2022-08-19T10:12:12;100135.16;;;26.18;65.73
2339;BME280;1180;51.438;6.978;2022-08-19T10:14:40;100129.44;;;26.07;65.15
2339;BME280;1180;51.438;6.978;2022-08-19T10:17:06;100132.53;;;26.18;65.52
2339;BME280;1180;51.438;6.978;2022-08-19T10:19:32;100123.34;;;26.00;65.04
2339;BME280;1180;51.438;6.978;2022-08-19T10:22:05;100129.19;;;25.89;66.62
2339;BME280;1180;51.438;6.978;2022-08-19T10:24:31;100132.28;;;26.13;66.33
2339;BME280;1180;51.438;6.978;2022-08-19T10:26:59;100123.88;;;26.31;64.78
2339;BME280;1180;51.438;6.978;2022-08-19T10:29:26;100122.91;;;26.38;65.24
2339;BME280;1180;51.438;6.978;2022-08-19T10:31:55;100123.72;;;26.46;65.23
2339;BME280;1180;51.438;6.978;2022-08-19T10:34:23;100116.66;;;26.53;64.67
2339;BME280;1180;51.438;6.978;2022-08-19T10:36:49;100117.69;;;26.52;63.96
2339;BME280;1180;51.438;6.978;2022-08-19T10:39:14;100113.81;;;26.55;64.19
2339;BME280;1180;51.438;6.978;2022-08-19T10:41:40;100112.56;;;26.44;63.58
2339;BME280;1180;51.438;6.978;2022-08-19T10:44:11;100111.59;;;26.51;63.89
2339;BME280;1180;51.438;6.978;2022-08-19T10:46:41;100110.59;;;26.73;64.06
2339;BME280;1180;51.438;6.978;2022-08-19T10:49:08;100120.53;;;26.71;61.13
2339;BME280;1180;51.438;6.978;2022-08-19T10:51:34;100117.91;;;26.77;61.43
2339;BME280;1180;51.438;6.978;2022-08-19T10:54:19;100121.34;;;26.71;61.59
2339;BME280;1180;51.438;6.978;2022-08-19T10:56:44;100109.19;;;26.77;61.99
2339;BME280;1180;51.438;6.978;2022-08-19T10:59:18;100116.13;;;26.91;62.31
2339;BME280;1180;51.438;6.978;2022-08-19T11:01:45;100115.50;;;26.96;61.31
2339;BME280;1180;51.438;6.978;2022-08-19T11:04:11;100125.41;;;26.80;61.87
2339;BME280;1180;51.438;6.978;2022-08-19T11:06:39;100117.13;;;26.90;61.16
2339;BME280;1180;51.438;6.978;2022-08-19T11:09:07;100119.97;;;27.02;60.91
2339;BME280;1180;51.438;6.978;2022-08-19T11:11:33;100120.94;;;27.01;60.70
2339;BME280;1180;51.438;6.978;2022-08-19T11:14:13;100125.63;;;27.13;60.99
2339;BME280;1180;51.438;6.978;2022-08-19T11:16:40;100120.16;;;27.01;60.57
2339;BME280;1180;51.438;6.978;2022-08-19T11:19:06;100118.94;;;26.96;61.23
2339;BME280;1180;51.438;6.978;2022-08-19T11:21:39;100117.13;;;26.90;59.98
2339;BME280;1180;51.438;6.978;2022-08-19T11:24:19;100115.09;;;26.86;60.41
2339;BME280;1180;51.438;6.978;2022-08-19T11:26:46;100121.19;;;27.00;60.20
2339;BME280;1180;51.438;6.978;2022-08-19T11:29:15;100122.78;;;27.01;59.92
2339;BME280;1180;51.438;6.978;2022-08-19T11:31:44;100119.72;;;26.70;59.53
2339;BME280;1180;51.438;6.978;2022-08-19T11:34:12;100112.00;;;26.82;59.49
2339;BME280;1180;51.438;6.978;2022-08-19T11:36:40;100112.28;;;26.87;58.72
2339;BME280;1180;51.438;6.978;2022-08-19T11:39:08;100108.59;;;26.95;58.55
2339;BME280;1180;51.438;6.978;2022-08-19T11:41:34;100114.69;;;27.09;57.41
2339;BME280;1180;51.438;6.978;2022-08-19T11:44:00;100111.84;;;27.10;57.59
2339;BME280;1180;51.438;6.978;2022-08-19T11:46:27;100110.59;;;27.40;55.95
2339;BME280;1180;51.438;6.978;2022-08-19T11:48:55;100103.06;;;27.64;56.61
2339;BME280;1180;51.438;6.978;2022-08-19T11:51:24;100099.22;;;27.60;57.73
2339;BME280;1180;51.438;6.978;2022-08-19T11:53:51;100103.25;;;27.69;56.59
2339;BME280;1180;51.438;6.978;2022-08-19T11:56:18;100096.56;;;27.46;56.76
2339;BME280;1180;51.438;6.978;2022-08-19T11:58:44;100102.50;;;27.35;57.11
2339;BME280;1180;51.438;6.978;2022-08-19T12:01:12;100091.31;;;27.60;56.31
2339;BME280;1180;51.438;6.978;2022-08-19T12:03:40;100105.63;;;27.77;54.20
2339;BME280;1180;51.438;6.978;2022-08-19T12:06:07;100099.75;;;27.82;53.54
2339;BME280;1180;51.438;6.978;2022-08-19T12:08:33;100096.72;;;27.78;54.27
2339;BME280;1180;51.438;6.978;2022-08-19T12:10:58;100102.66;;;27.60;55.27
2339;BME280;1180;51.438;6.978;2022-08-19T12:13:27;100094.75;;;27.47;56.03
2339;BME280;1180;51.438;6.978;2022-08-19T12:15:53;100095.53;;;27.67;55.98
2339;BME280;1180;51.438;6.978;2022-08-19T12:18:19;100092.63;;;27.82;52.85
2339;BME280;1180;51.438;6.978;2022-08-19T12:20:45;100085.81;;;27.68;53.36
2339;BME280;1180;51.438;6.978;2022-08-19T12:23:12;100092.53;;;27.44;53.97
2339;BME280;1180;51.438;6.978;2022-08-19T12:25:44;100080.81;;;27.39;53.70
2339;BME280;1180;51.438;6.978;2022-08-19T12:28:15;100081.38;;;27.62;52.45
2339;BME280;1180;51.438;6.978;2022-08-19T12:30:40;100075.56;;;27.92;52.35
2339;BME280;1180;51.438;6.978;2022-08-19T12:33:07;100074.44;;;28.13;51.21
2339;BME280;1180;51.438;6.978;2022-08-19T12:35:33;100079.63;;;28.33;52.12
2339;BME280;1180;51.438;6.978;2022-08-19T12:37:58;100075.53;;;28.37;52.09
2339;BME280;1180;51.438;6.978;2022-08-19T12:40:24;100078.16;;;28.37;51.29
2339;BME280;1180;51.438;6.978;2022-08-19T12:42:50;100070.28;;;28.31;51.88
2339;BME280;1180;51.438;6.978;2022-08-19T12:45:16;100074.38;;;28.27;50.32
2339;BME280;1180;51.438;6.978;2022-08-19T12:47:41;100072.81;;;28.19;51.29
2339;BME280;1180;51.438;6.978;2022-08-19T12:50:08;100071.66;;;28.01;50.40
2339;BME280;1180;51.438;6.978;2022-08-19T12:52:35;100077.09;;;28.06;49.91
2339;BME280;1180;51.438;6.978;2022-08-19T12:55:07;100073.19;;;28.22;49.40
2339;BME280;1180;51.438;6.978;2022-08-19T12:57:33;100074.97;;;28.29;47.68
2339;BME280;1180;51.438;6.978;2022-08-19T13:00:09;100079.16;;;28.43;47.12
2339;BME280;1180;51.438;6.978;2022-08-19T13:02:37;100066.66;;;28.57;48.29
2339;BME280;1180;51.438;6.978;2022-08-19T13:05:04;100069.34;;;28.82;49.61
2339;BME280;1180;51.438;6.978;2022-08-19T13:07:31;100070.75;;;29.04;48.65
2339;BME280;1180;51.438;6.978;2022-08-19T13:09:57;100067.56;;;29.20;47.59
2339;BME280;1180;51.438;6.978;2022-08-19T13:12:22;100065.19;;;29.31;46.39
2339;BME280;1180;51.438;6.978;2022-08-19T13:14:49;100069.84;;;29.35;46.55
2339;BME280;1180;51.438;6.978;2022-08-19T13:17:16;100064.75;;;29.15;47.40
2339;BME280;1180;51.438;6.978;2022-08-19T13:19:41;100068.72;;;29.24;47.51
2339;BME280;1180;51.438;6.978;2022-08-19T13:22:07;100059.03;;;29.37;47.26
2339;BME280;1180;51.438;6.978;2022-08-19T13:24:33;100059.84;;;29.37;48.19
2339;BME280;1180;51.438;6.978;2022-08-19T13:26:59;100048.75;;;29.29;46.91